Dobrodošli na spletni strani vremenske postaje Senovo. Vse informacije so informativnega značaja, saj vremenska postaja ni del državne mreže meteoroloških postaj. AKTUALNIH OBVESTIL NI.


Posebna pozornost v zvezi z vremenskimi dogajanji ni potrebna.    Posebna pozornost v zvezi z vremenskimi dogajanji ni potrebna.

Pogled proti Armezu več informacij Pogled proti Armezu


Bohor več informacij Bohor


Radar strel več informacij blitzortung!


Radar padavin več informacij rain snow radar


Obiščite še:

Template documentation
and downloads

And another site



Weather Underground, zgodovina - Tekstovno

Dnevni povzetek za Januar 8, 2017 Enote:  Angleško    Metrično   Obe
« Predhodni Dan
Naslednji Dan »
Dnevni Tedenski Mesečni Letni Po meri
  Višja: Nižja: Povprečje:
Temperatura: TemperatureC °F -14.1 °F -8.6 °F
Točka rosišča: DewpointC °F -17.6 °F -12.9 °F
Vlažnost: Humidity % 58 % 71 %
Hitrost vetra: WindSpeedKMH mph 0.0 mph 0.8 mph
Sunki vetra: WindSpeedGustKMH mph - -
Veter:- - SSW
Zračni tlak: PressurehPa in 1023.9 in -
Padavine: 1.5 in    
Historical Graphs
 
 
Tabelarni podarki za Januar 8, 2017
Čas Temperatura Točka rosišča Zračni tlak Veter Hitrost vetra Sunki vetra Vlažnost Intenziteta padavin (urna)
TemperatureC °F DewpointC °F PressurehPa in Calm     Humidity % HourlyPrecipMM in
00:01 -9.3 °F -16.1 °F 1028.0 in Calm     58 % 0.0 in
00:06 -9.2 °F -15.9 °F 1028.0 in Calm     58 % 0.0 in
00:11 -9.2 °F -15.9 °F 1028.0 in Calm     58 % 0.0 in
00:16 -9.2 °F -15.9 °F 1028.0 in Calm     58 % 0.0 in
00:21 -9.1 °F -15.9 °F 1028.0 in Calm     58 % 0.0 in
00:26 -9.1 °F -15.9 °F 1028.0 in Calm     58 % 0.0 in
00:31 -9.0 °F -15.8 °F 1028.0 in Calm   4.3 mph 58 % 0.0 in
00:36 -8.9 °F -15.7 °F 1028.0 in WNW 1.1 mph 4.3 mph 58 % 0.0 in
00:41 -8.8 °F -15.6 °F 1028.0 in West 2.1 mph 4.0 mph 58 % 0.0 in
00:46 -8.6 °F -15.2 °F 1028.0 in SW 2.7 mph 5.5 mph 59 % 0.0 in
00:51 -8.5 °F -15.1 °F 1028.0 in SSW 2.9 mph 5.5 mph 59 % 0.0 in
00:56 -8.4 °F -15.0 °F 1028.0 in SSW 2.1 mph 5.0 mph 59 % 0.0 in
01:01 -8.4 °F -14.8 °F 1028.0 in SSW 2.4 mph 5.0 mph 60 % 0.0 in
01:06 -8.3 °F -14.7 °F 1028.0 in SSW 2.7 mph 5.0 mph 60 % 0.0 in
01:11 -8.3 °F -14.5 °F 1027.0 in SSW 3.1 mph 5.5 mph 61 % 0.0 in
01:16 -8.3 °F -14.5 °F 1027.0 in SSW 3.4 mph 5.5 mph 61 % 0.0 in
01:21 -8.2 °F -14.2 °F 1027.0 in SSW 3.4 mph 5.8 mph 62 % 0.0 in
01:26 -8.1 °F -14.1 °F 1027.0 in SSW 3.4 mph 5.8 mph 62 % 0.0 in
01:31 -8.1 °F -13.9 °F 1027.0 in SSW 3.4 mph 6.1 mph 63 % 0.0 in
01:36 -8.1 °F -13.9 °F 1027.0 in SSW 3.2 mph 6.1 mph 63 % 0.0 in
01:41 -8.1 °F -13.9 °F 1026.0 in SSW 2.9 mph 5.0 mph 63 % 0.0 in
01:46 -8.1 °F -13.7 °F 1026.0 in South 2.4 mph 4.7 mph 64 % 0.0 in
01:47 -8.1 °F -13.7 °F 1026.0 in South 2.4 mph 4.7 mph 64 % 0.0 in
01:52 -8.1 °F -13.7 °F 1026.0 in South 1.8 mph 4.3 mph 64 % 0.0 in
01:57 -8.1 °F -13.5 °F 1026.0 in SSE 2.1 mph 4.3 mph 65 % 0.0 in
02:02 -8.1 °F -13.5 °F 1026.0 in SSE 2.4 mph 4.0 mph 65 % 0.0 in
02:07 -8.1 °F -13.5 °F 1026.0 in SSE 2.9 mph 4.7 mph 65 % 0.0 in
02:12 -8.1 °F -13.3 °F 1026.0 in SSE 3.4 mph 5.5 mph 66 % 0.0 in
02:17 -8.1 °F -13.3 °F 1026.0 in SSE 3.5 mph 5.5 mph 66 % 0.0 in
02:22 -8.1 °F -13.3 °F 1026.0 in SSE 2.9 mph 5.0 mph 66 % 0.0 in
02:27 -8.1 °F -13.3 °F 1024.9 in SSE 2.7 mph 5.0 mph 66 % 0.0 in
02:32 -8.1 °F -13.2 °F 1024.9 in SSE 2.7 mph 4.7 mph 67 % 0.0 in
02:37 -8.1 °F -13.2 °F 1024.9 in SSE 1.4 mph 4.3 mph 67 % 0.0 in
02:41 -8.1 °F -13.2 °F 1024.9 in SSW 0.3 mph 2.6 mph 67 % 0.0 in
02:47 -8.1 °F -13.2 °F 1024.9 in SSW 0.2 mph 2.6 mph 67 % 0.0 in
02:52 -8.0 °F -12.9 °F 1024.9 in South 0.3 mph 4.0 mph 68 % 0.0 in
02:57 -8.0 °F -13.1 °F 1026.0 in SSW 1.0 mph 4.0 mph 67 % 0.0 in
03:02 -8.0 °F -12.9 °F 1026.0 in SSW 1.6 mph 4.0 mph 68 % 0.0 in
03:07 -8.0 °F -12.9 °F 1026.0 in SSW 1.4 mph 4.0 mph 68 % 0.0 in
03:12 -8.0 °F -12.9 °F 1026.0 in SW 0.8 mph 4.0 mph 68 % 0.0 in
03:17 -8.0 °F -12.9 °F 1026.0 in SSW 1.0 mph 3.2 mph 68 % 0.0 in
03:22 -8.0 °F -12.9 °F 1026.0 in SW 0.8 mph 2.6 mph 68 % 0.0 in
03:27 -8.0 °F -12.9 °F 1026.0 in Calm     68 % 0.0 in
03:32 -8.0 °F -12.9 °F 1026.0 in South 0.2 mph 4.0 mph 68 % 0.0 in
03:37 -8.0 °F -12.9 °F 1026.0 in South 0.3 mph 4.0 mph 68 % 0.0 in
03:42 -8.0 °F -12.9 °F 1024.9 in South 0.2 mph 1.4 mph 68 % 0.0 in
03:47 -8.0 °F -12.7 °F 1024.9 in South 0.2 mph 2.6 mph 69 % 0.0 in
03:52 -8.0 °F -12.7 °F 1024.9 in SSW 0.8 mph 4.0 mph 69 % 0.0 in
03:57 -8.0 °F -12.7 °F 1024.9 in SSW 1.6 mph 4.0 mph 69 % 0.0 in
04:02 -8.1 °F -12.8 °F 1024.9 in SSW 1.8 mph 3.2 mph 69 % 0.0 in
04:07 -8.1 °F -12.8 °F 1024.9 in SSW 1.1 mph 2.6 mph 69 % 0.0 in
04:12 -8.1 °F -12.8 °F 1024.9 in SSW 0.6 mph 2.1 mph 69 % 0.0 in
04:17 -8.3 °F -13.0 °F 1024.9 in SSW 0.5 mph 2.6 mph 69 % 0.0 in
04:22 -8.4 °F -13.1 °F 1024.9 in SSW 1.0 mph 2.6 mph 69 % 0.0 in
04:27 -8.5 °F -13.2 °F 1024.9 in SSW 0.8 mph 2.1 mph 69 % 0.0 in
04:33 -8.6 °F -13.3 °F 1024.9 in Calm     69 % 0.0 in
04:38 -8.8 °F -13.4 °F 1024.9 in Calm     69 % 0.0 in
04:43 -9.0 °F -13.7 °F 1024.9 in Calm     69 % 0.0 in
04:48 -9.2 °F -14.0 °F 1024.9 in Calm     68 % 0.0 in
04:53 -9.3 °F -13.9 °F 1024.9 in Calm     69 % 0.0 in
04:58 -9.4 °F -14.1 °F 1024.9 in Calm     69 % 0.0 in
05:03 -9.6 °F -14.4 °F 1024.9 in Calm     68 % 0.0 in
05:08 -9.7 °F -14.3 °F 1024.9 in Calm     69 % 0.0 in
05:13 -9.8 °F -14.4 °F 1023.9 in West 0.2 mph 3.2 mph 69 % 0.0 in
05:18 -10.0 °F -14.6 °F 1023.9 in West 0.6 mph 3.2 mph 69 % 0.0 in
05:23 -10.2 °F -14.8 °F 1023.9 in West 0.5 mph 2.6 mph 69 % 0.0 in
05:28 -10.4 °F -15.0 °F 1023.9 in Calm     69 % 0.0 in
05:33 -10.6 °F -15.2 °F 1023.9 in Calm     69 % 0.0 in
05:38 -10.7 °F -15.3 °F 1023.9 in Calm     69 % 0.0 in
05:43 -10.8 °F -15.4 °F 1023.9 in Calm     69 % 0.0 in
05:48 -11.0 °F -15.6 °F 1023.9 in Calm     69 % 0.0 in
05:53 -11.1 °F -15.7 °F 1023.9 in Calm     69 % 0.0 in
05:58 -11.1 °F -15.7 °F 1023.9 in Calm     69 % 0.0 in
06:03 -11.2 °F -15.8 °F 1023.9 in Calm     69 % 0.0 in
06:08 -11.2 °F -15.8 °F 1023.9 in Calm     69 % 0.0 in
06:13 -11.2 °F -15.8 °F 1023.9 in Calm     69 % 0.0 in
06:18 -11.2 °F -15.8 °F 1023.9 in Calm     69 % 0.0 in
06:23 -11.1 °F -15.7 °F 1023.9 in Calm     69 % 0.0 in
06:28 -11.0 °F -15.6 °F 1023.9 in Calm     69 % 0.0 in
06:33 -10.9 °F -15.5 °F 1023.9 in Calm     69 % 0.0 in
06:38 -10.8 °F -15.4 °F 1023.9 in Calm     69 % 0.0 in
06:43 -10.7 °F -15.3 °F 1023.9 in SE 0.3 mph 3.2 mph 69 % 0.0 in
06:48 -10.6 °F -15.2 °F 1023.9 in SE 0.6 mph 3.2 mph 69 % 0.0 in
06:53 -10.4 °F -15.0 °F 1023.9 in SE 0.3 mph 3.2 mph 69 % 0.0 in
06:58 -10.2 °F -14.8 °F 1024.9 in Calm     69 % 0.0 in
07:03 -10.2 °F -14.8 °F 1024.9 in Calm     69 % 0.0 in
07:08 -10.1 °F -14.7 °F 1024.9 in Calm     69 % 0.0 in
07:13 -9.9 °F -14.0 °F 1024.9 in Calm     72 % 0.0 in
07:18 -9.8 °F -13.7 °F 1024.9 in Calm     73 % 0.0 in
07:23 -9.7 °F -13.6 °F 1024.9 in Calm     73 % 0.0 in
07:28 -9.7 °F -13.6 °F 1024.9 in Calm     73 % 0.0 in
07:33 -9.5 °F -13.4 °F 1024.9 in Calm     73 % 0.0 in
07:38 -9.5 °F -13.4 °F 1024.9 in Calm     73 % 0.0 in
07:43 -9.4 °F -13.2 °F 1024.9 in Calm     74 % 0.0 in
07:48 -9.3 °F -13.1 °F 1024.9 in Calm     74 % 0.0 in
07:53 -9.3 °F -13.1 °F 1024.9 in Calm     74 % 0.0 in
07:58 -9.2 °F -13.0 °F 1024.9 in Calm     74 % 0.0 in
08:03 -9.2 °F -13.0 °F 1024.9 in Calm     74 % 0.0 in
08:08 -9.1 °F -12.9 °F 1024.9 in Calm     74 % 0.0 in
08:13 -9.0 °F -12.8 °F 1024.9 in Calm     74 % 0.0 in
08:18 -8.9 °F -12.7 °F 1024.9 in Calm     74 % 0.0 in
08:23 -8.9 °F -12.7 °F 1024.9 in Calm     74 % 0.0 in
08:28 -8.8 °F -12.6 °F 1024.9 in Calm     74 % 0.0 in
08:33 -8.7 °F -12.5 °F 1024.9 in Calm     74 % 0.0 in
08:38 -8.6 °F -12.4 °F 1024.9 in Calm     74 % 0.0 in
08:43 -8.6 °F -12.4 °F 1024.9 in Calm     74 % 0.0 in
08:48 -8.6 °F -12.4 °F 1024.9 in Calm     74 % 0.3 in
08:53 -8.5 °F -12.3 °F 1024.9 in Calm     74 % 0.3 in
08:58 -8.4 °F -12.2 °F 1024.9 in Calm     74 % 0.3 in
09:03 -8.3 °F -12.1 °F 1024.9 in Calm     74 % 0.3 in
09:08 -8.1 °F -11.9 °F 1024.9 in Calm     74 % 0.3 in
09:13 -8.0 °F -11.8 °F 1026.0 in Calm     74 % 0.3 in
09:18 -8.0 °F -11.8 °F 1026.0 in Calm     74 % 0.5 in
09:23 -7.9 °F -11.9 °F 1026.0 in Calm     73 % 0.5 in
09:28 -7.8 °F -11.8 °F 1026.0 in Calm     73 % 0.5 in
09:34 -7.7 °F -11.7 °F 1026.0 in Calm     73 % 0.5 in
09:39 -7.6 °F -11.6 °F 1026.0 in Calm     73 % 0.8 in
09:44 -7.4 °F -11.4 °F 1026.0 in Calm     73 % 0.8 in
09:49 -7.4 °F -11.4 °F 1026.0 in Calm     73 % 0.5 in
09:54 -7.3 °F -11.3 °F 1026.0 in Calm     73 % 0.5 in
09:59 -7.1 °F -11.1 °F 1026.0 in Calm     73 % 0.8 in
10:04 -7.0 °F -11.0 °F 1026.0 in North 0.5 mph 2.6 mph 73 % 0.8 in
10:09 -6.9 °F -10.9 °F 1026.0 in North 0.5 mph 2.6 mph 73 % 0.8 in
10:14 -6.8 °F -10.8 °F 1026.0 in SW 1.1 mph 4.3 mph 73 % 0.8 in
10:19 -6.7 °F -10.7 °F 1026.0 in SW 2.3 mph 4.3 mph 73 % 0.5 in
10:24 -6.6 °F -10.7 °F 1026.0 in SW 2.6 mph 4.3 mph 73 % 0.5 in
10:29 -6.5 °F -10.6 °F 1026.0 in SW 2.9 mph 4.7 mph 73 % 0.5 in
10:34 -6.5 °F -10.7 °F 1026.0 in SSW 3.1 mph 4.7 mph 72 % 0.5 in
10:39 -6.4 °F -10.6 °F 1026.0 in SSW 3.1 mph 4.7 mph 72 % 0.3 in
10:44 -6.3 °F -10.5 °F 1026.0 in SSW 2.9 mph 4.7 mph 72 % 0.3 in
10:49 -6.1 °F -10.3 °F 1026.0 in SW 1.8 mph 4.7 mph 72 % 0.3 in
10:54 -6.0 °F -10.2 °F 1026.0 in SW 0.5 mph 1.8 mph 72 % 0.3 in
10:59 -5.8 °F -10.1 °F 1026.0 in Calm   1.8 mph 72 % 0.3 in
11:04 -5.8 °F -10.2 °F 1026.0 in Calm     71 % 0.3 in
11:09 -5.8 °F -10.2 °F 1026.0 in South 0.2 mph 4.0 mph 71 % 0.3 in
11:14 -5.8 °F -10.2 °F 1026.0 in South 1.6 mph 4.3 mph 71 % 0.3 in
11:19 -5.7 °F -10.1 °F 1026.0 in South 2.6 mph 4.3 mph 71 % 0.3 in
11:24 -5.7 °F -10.1 °F 1026.0 in SSW 2.7 mph 5.5 mph 71 % 0.3 in
11:29 -5.7 °F -10.1 °F 1024.9 in SSW 3.5 mph 7.6 mph 71 % 0.3 in
11:34 -5.6 °F -10.0 °F 1024.9 in SSW 3.9 mph 7.6 mph 71 % 0.3 in
11:39 -5.6 °F -10.0 °F 1024.9 in SSW 3.5 mph 6.4 mph 71 % 0.3 in
11:44 -5.6 °F -10.0 °F 1026.0 in SSW 4.0 mph 6.4 mph 71 % 0.3 in
11:49 -5.6 °F -10.0 °F 1026.0 in SSW 4.7 mph 6.4 mph 71 % 0.3 in
11:54 -5.6 °F -10.0 °F 1026.0 in SSW 4.2 mph 5.8 mph 71 % 0.3 in
11:59 -5.5 °F -9.9 °F 1026.0 in SSW 3.7 mph 5.5 mph 71 % 0.3 in
12:04 -5.5 °F -10.1 °F 1026.0 in SW 3.7 mph 5.5 mph 70 % 0.3 in
12:09 -5.5 °F -9.9 °F 1026.0 in SW 3.4 mph 5.5 mph 71 % 0.3 in
12:14 -5.5 °F -9.9 °F 1026.0 in SSW 2.3 mph 4.7 mph 71 % 0.0 in
12:19 -5.4 °F -9.8 °F 1026.0 in SW 0.6 mph 4.0 mph 71 % 0.0 in
12:24 -5.3 °F -9.7 °F 1026.0 in SSW 0.3 mph 2.1 mph 71 % 0.0 in
12:29 -5.2 °F -9.7 °F 1026.0 in SSW 0.3 mph 2.1 mph 71 % 0.0 in
12:34 -5.3 °F -9.7 °F 1026.0 in Calm     71 % 0.0 in
12:39 -5.2 °F -9.7 °F 1026.0 in Calm     71 % 0.0 in
12:44 -5.2 °F -9.7 °F 1024.9 in Calm     71 % 0.0 in
12:49 -5.2 °F -9.7 °F 1024.9 in Calm   2.1 mph 71 % 0.0 in
12:54 -5.1 °F -9.6 °F 1024.9 in SSW 0.2 mph 2.1 mph 71 % 0.0 in
13:00 -5.1 °F -9.6 °F 1024.9 in SSW 0.8 mph 4.0 mph 71 % 0.0 in
13:05 -5.1 °F -9.6 °F 1024.9 in SSW 1.0 mph 4.0 mph 71 % 0.0 in
13:10 -5.0 °F -9.3 °F 1024.9 in SSW 1.1 mph 4.0 mph 72 % 0.3 in
13:15 -4.9 °F -9.3 °F 1024.9 in SSW 1.4 mph 4.0 mph 71 % 0.3 in
13:20 -4.9 °F -9.3 °F 1024.9 in SSW 1.8 mph 4.7 mph 71 % 0.3 in
13:25 -4.8 °F -9.3 °F 1024.9 in SSW 1.6 mph 4.7 mph 71 % 0.3 in
13:30 -4.7 °F -9.2 °F 1024.9 in SSW 0.6 mph 3.5 mph 71 % 0.3 in
13:35 -4.7 °F -9.2 °F 1024.9 in SSW 0.8 mph 3.5 mph 71 % 0.3 in
13:40 -4.7 °F -9.2 °F 1024.9 in SSW 0.6 mph 3.5 mph 71 % 0.3 in
13:45 -4.7 °F -9.2 °F 1024.9 in SSW 0.8 mph 3.5 mph 71 % 0.3 in
13:50 -4.7 °F -9.2 °F 1024.9 in SSW 1.6 mph 3.5 mph 71 % 0.3 in
13:55 -4.7 °F -9.2 °F 1024.9 in SSW 1.9 mph 3.5 mph 71 % 0.3 in
14:00 -4.7 °F -9.2 °F 1024.9 in SSW 2.3 mph 3.5 mph 71 % 0.3 in
14:05 -4.7 °F -9.2 °F 1024.9 in SSW 2.4 mph 4.0 mph 71 % 0.3 in
14:10 -4.7 °F -9.2 °F 1024.9 in SSW 2.6 mph 4.0 mph 71 % 0.0 in
14:18 -4.7 °F -9.2 °F 1024.9 in SSW 1.6 mph 4.0 mph 71 % 0.0 in
14:33 -4.7 °F -9.3 °F 1024.9 in SSW 1.3 mph 4.0 mph 70 % 0.0 in
15:14 -4.9 °F -9.6 °F 1024.9 in SSW 1.6 mph 3.2 mph 70 % 0.0 in
15:22 -4.9 °F -9.6 °F 1024.9 in SSW 1.8 mph 4.0 mph 70 % 0.0 in
15:30 -5.0 °F -9.4 °F 1024.9 in SSW 1.3 mph 3.5 mph 71 % 0.0 in
15:37 -5.1 °F -9.6 °F 1024.9 in SSW 1.3 mph 3.5 mph 71 % 0.0 in
15:42 -5.1 °F -9.6 °F 1026.0 in SSW 1.8 mph 3.5 mph 71 % 0.0 in
15:47 -5.2 °F -9.7 °F 1026.0 in SSW 1.0 mph 3.5 mph 71 % 0.0 in
15:52 -5.3 °F -9.7 °F 1026.0 in Calm     71 % 0.0 in
15:57 -5.5 °F -10.1 °F 1026.0 in Calm     70 % 0.0 in
16:02 -5.6 °F -10.2 °F 1026.0 in Calm     70 % 0.0 in
16:07 -5.9 °F -10.5 °F 1026.0 in SSW 1.1 mph 3.5 mph 70 % 0.0 in
16:12 -6.1 °F -10.5 °F 1026.0 in SSW 1.6 mph 3.5 mph 71 % 0.0 in
16:17 -6.4 °F -11.0 °F 1026.0 in SSW 0.5 mph 2.1 mph 70 % 0.0 in
16:22 -6.6 °F -11.2 °F 1026.0 in Calm     70 % 0.0 in
16:27 -6.9 °F -11.4 °F 1026.0 in Calm     70 % 0.0 in
16:32 -7.1 °F -11.7 °F 1026.0 in Calm     70 % 0.0 in
16:37 -7.4 °F -11.9 °F 1026.0 in Calm     70 % 0.0 in
16:42 -7.7 °F -12.4 °F 1026.0 in SSW 0.2 mph 2.6 mph 69 % 0.0 in
16:47 -8.2 °F -12.7 °F 1026.0 in SSW 0.2 mph 2.6 mph 70 % 0.0 in
16:52 -8.4 °F -12.9 °F 1026.0 in Calm     70 % 0.0 in
16:57 -8.8 °F -13.3 °F 1026.0 in Calm     70 % 0.0 in
17:02 -9.2 °F -13.7 °F 1026.0 in Calm     70 % 0.0 in
17:07 -9.4 °F -13.8 °F 1026.0 in Calm     70 % 0.0 in
17:12 -9.7 °F -14.2 °F 1026.0 in Calm     70 % 0.0 in
17:17 -10.0 °F -14.3 °F 1026.0 in Calm     71 % 0.0 in
17:22 -10.1 °F -14.4 °F 1026.0 in Calm     71 % 0.0 in
17:27 -10.3 °F -14.6 °F 1026.0 in Calm     71 % 0.0 in
17:32 -10.6 °F -14.8 °F 1026.0 in Calm     71 % 0.0 in
17:37 -10.7 °F -14.9 °F 1026.0 in Calm     71 % 0.0 in
17:42 -10.9 °F -15.1 °F 1026.0 in Calm     71 % 0.0 in
17:47 -11.0 °F -15.2 °F 1026.0 in Calm     71 % 0.0 in
17:52 -11.0 °F -15.2 °F 1026.0 in Calm     71 % 0.0 in
17:57 -11.1 °F -15.3 °F 1026.0 in Calm     71 % 0.0 in
18:02 -11.1 °F -15.3 °F 1026.0 in Calm     71 % 0.0 in
18:07 -11.1 °F -15.3 °F 1026.0 in Calm     71 % 0.0 in
18:12 -10.8 °F -15.1 °F 1024.9 in Calm     71 % 0.0 in
18:17 -10.7 °F -14.9 °F 1024.9 in Calm     71 % 0.0 in
18:22 -10.6 °F -14.8 °F 1024.9 in Calm     71 % 0.0 in
18:27 -10.3 °F -14.6 °F 1027.0 in Calm     71 % 0.0 in
18:32 -10.1 °F -14.4 °F 1027.0 in Calm     71 % 0.0 in
18:37 -9.9 °F -13.5 °F 1027.0 in Calm     75 % 0.0 in
18:42 -9.7 °F -13.3 °F 1026.0 in Calm     75 % 0.0 in
18:47 -9.5 °F -12.9 °F 1026.0 in Calm     76 % 0.0 in
18:52 -9.4 °F -12.7 °F 1026.0 in Calm     77 % 0.0 in
18:57 -9.3 °F -12.6 °F 1026.0 in Calm     77 % 0.0 in
19:02 -9.1 °F -12.2 °F 1026.0 in Calm     78 % 0.0 in
19:07 -9.0 °F -12.1 °F 1026.0 in Calm     78 % 0.0 in
19:12 -8.9 °F -12.1 °F 1026.0 in Calm     78 % 0.0 in
19:17 -8.8 °F -11.9 °F 1026.0 in Calm     78 % 0.0 in
19:22 -8.6 °F -11.7 °F 1026.0 in Calm     78 % 0.0 in
19:27 -8.5 °F -11.5 °F 1026.0 in Calm     79 % 0.0 in
19:32 -8.5 °F -11.5 °F 1026.0 in Calm     79 % 0.0 in
19:37 -8.4 °F -11.4 °F 1026.0 in Calm     79 % 0.0 in
19:42 -8.3 °F -11.3 °F 1026.0 in Calm     79 % 0.0 in
19:47 -8.3 °F -11.3 °F 1026.0 in Calm     79 % 0.0 in
19:52 -8.3 °F -11.3 °F 1026.0 in Calm     79 % 0.0 in
19:57 -8.2 °F -11.2 °F 1026.0 in Calm     79 % 0.0 in
20:02 -8.1 °F -11.1 °F 1026.0 in Calm     79 % 0.0 in
20:07 -8.1 °F -11.1 °F 1026.0 in Calm     79 % 0.0 in
20:12 -8.1 °F -11.1 °F 1026.0 in Calm     79 % 0.0 in
20:17 -8.1 °F -11.1 °F 1026.0 in Calm   2.1 mph 79 % 0.0 in
20:22 -8.1 °F -11.1 °F 1026.0 in SSW 0.3 mph 2.1 mph 79 % 0.0 in
20:27 -8.1 °F -11.1 °F 1026.0 in SSW 0.3 mph 2.1 mph 79 % 0.0 in
20:32 -8.1 °F -11.1 °F 1026.0 in Calm     79 % 0.0 in
20:37 -8.3 °F -11.3 °F 1026.0 in Calm     79 % 0.0 in
20:43 -8.4 °F -11.4 °F 1026.0 in Calm   2.1 mph 79 % 0.0 in
20:48 -8.5 °F -11.7 °F 1026.0 in Calm   2.1 mph 78 % 0.0 in
20:53 -8.8 °F -12.1 °F 1026.0 in Calm     77 % 0.0 in
20:58 -9.1 °F -12.4 °F 1026.0 in Calm     77 % 0.0 in
21:03 -9.5 °F -12.9 °F 1026.0 in Calm     76 % 0.0 in
21:08 -9.8 °F -13.4 °F 1026.0 in Calm     75 % 0.0 in
21:13 -10.1 °F -13.7 °F 1026.0 in Calm     75 % 0.0 in
21:18 -10.4 °F -14.0 °F 1026.0 in Calm     75 % 0.0 in
21:23 -10.8 °F -14.4 °F 1026.0 in Calm     75 % 0.0 in
21:28 -11.0 °F -14.6 °F 1026.0 in Calm     75 % 0.0 in
21:33 -11.3 °F -14.8 °F 1026.0 in Calm     75 % 0.0 in
21:38 -11.6 °F -15.2 °F 1026.0 in Calm     75 % 0.0 in
21:43 -11.8 °F -15.3 °F 1026.0 in Calm     75 % 0.0 in
21:48 -12.0 °F -15.6 °F 1026.0 in Calm     75 % 0.0 in
21:53 -12.2 °F -15.7 °F 1026.0 in Calm     75 % 0.0 in
21:58 -12.3 °F -15.8 °F 1026.0 in Calm     75 % 0.0 in
22:03 -12.5 °F -16.0 °F 1026.0 in Calm     75 % 0.0 in
22:08 -12.6 °F -16.1 °F 1026.0 in Calm     75 % 0.0 in
22:13 -12.7 °F -16.2 °F 1026.0 in North 0.3 mph 3.2 mph 75 % 0.0 in
22:18 -12.8 °F -16.3 °F 1026.0 in North 1.0 mph 5.0 mph 75 % 0.0 in
22:23 -12.8 °F -16.3 °F 1026.0 in WNW 2.6 mph 6.1 mph 75 % 0.0 in
22:28 -12.8 °F -16.3 °F 1026.0 in WSW 3.7 mph 6.1 mph 75 % 0.0 in
22:33 -12.9 °F -16.4 °F 1026.0 in WSW 2.7 mph 6.1 mph 75 % 0.0 in
22:38 -12.9 °F -16.4 °F 1026.0 in North 1.8 mph 4.7 mph 75 % 0.0 in
22:43 -13.0 °F -16.5 °F 1026.0 in WNW 0.8 mph 4.7 mph 75 % 0.0 in
22:48 -13.1 °F -16.6 °F 1026.0 in NNW 0.3 mph 3.5 mph 75 % 0.0 in
22:53 -13.2 °F -16.7 °F 1026.0 in NNW 0.3 mph 3.5 mph 75 % 0.0 in
22:58 -13.3 °F -16.8 °F 1026.0 in Calm     75 % 0.0 in
23:03 -13.4 °F -16.9 °F 1026.0 in Calm     75 % 0.0 in
23:08 -13.5 °F -17.0 °F 1026.0 in SW 0.5 mph 3.5 mph 75 % 0.0 in
23:13 -13.5 °F -17.0 °F 1026.0 in West 1.3 mph 4.3 mph 75 % 0.0 in
23:18 -13.6 °F -17.1 °F 1026.0 in North 1.4 mph 4.3 mph 75 % 0.0 in
23:23 -13.7 °F -17.2 °F 1026.0 in NW 1.3 mph 4.0 mph 75 % 0.0 in
23:28 -13.8 °F -17.3 °F 1026.0 in West 1.1 mph 4.3 mph 75 % 0.0 in
23:33 -13.9 °F -17.4 °F 1026.0 in West 1.1 mph 4.3 mph 75 % 0.0 in
23:38 -13.9 °F -17.4 °F 1026.0 in NNE 0.3 mph 4.0 mph 75 % 0.0 in
23:43 -13.9 °F -17.4 °F 1024.9 in West 1.0 mph 4.0 mph 75 % 0.0 in
23:48 -14.0 °F -17.4 °F 1024.9 in WSW 1.3 mph 4.0 mph 75 % 0.0 in
23:53 -14.0 °F -17.4 °F 1024.9 in WSW 1.6 mph 4.0 mph 75 % 0.0 in
23:58 -14.1 °F -17.6 °F 1024.9 in NNW 1.3 mph 4.0 mph 75 % 0.0 in
Vremenska postaja Senovo
Podatki zbrani iz Weather Underground - 2.75 mb

Script developed by  Jim McMurry - jmcmurry@mwt.net Adapted for the template by  Wim van der Kuil - Leuven-Template.eu

Vremenski podatki so objavljeni na:

European Weather Network

WeatherCloud

Weather Underground

AWEKAS

HAMweather, WeatherForYou, PWS Weather

MapView

Geostik

Slovenia weather network

Oprema, ki se uporablja:

Vremenski program
Cumulus

Vremenski server
Asus

Cumulus

Asus